Time;durP1;ratioP1;P1;durP2;ratioP2;P2;SDS_P1;SDS_P2;PMS_P1;PMS_P2;Temp;Humidity;BMP_temperature;BMP_pressure;BME280_temperature;BME280_humidity;BME280_pressure;Samples;Min_cycle;Max_cycle;Signal;HPM_P1;HPM_P2
2023/07/15 00:01:09;;;;;;;2.10;1.25;;;18.10;99.90;;;;;;5091014;28;20081;-62
2023/07/15 00:03:34;;;;;;;0.38;0.38;;;18.00;99.90;;;;;;5091407;28;20059;-61
2023/07/15 00:06:01;;;;;;;0.25;0.25;;;18.10;99.90;;;;;;5089800;28;20051;-61
2023/07/15 00:08:27;;;;;;;0.65;0.65;;;18.20;99.90;;;;;;5090823;28;20044;-62
2023/07/15 00:10:54;;;;;;;0.30;0.30;;;18.00;99.90;;;;;;5090917;28;20044;-62
2023/07/15 00:13:20;;;;;;;0.60;0.60;;;18.40;99.90;;;;;;5090865;28;20048;-62
2023/07/15 00:15:50;;;;;;;0.70;0.70;;;18.30;99.90;;;;;;5089613;28;20048;-61
2023/07/15 00:18:17;;;;;;;1.23;0.80;;;18.20;99.90;;;;;;5091016;28;20062;-62
2023/07/15 00:20:44;;;;;;;0.55;0.55;;;18.10;99.90;;;;;;5091036;28;20048;-62
2023/07/15 00:23:25;;;;;;;0.43;0.43;;;18.20;99.90;;;;;;5091293;28;20055;-61
2023/07/15 00:25:53;;;;;;;0.55;0.55;;;18.10;99.90;;;;;;5090868;28;20158;-62
2023/07/15 00:28:20;;;;;;;0.82;0.82;;;18.30;99.90;;;;;;5090844;28;20141;-63
2023/07/15 00:30:49;;;;;;;0.68;0.43;;;18.50;99.90;;;;;;5091245;28;20503;-60
2023/07/15 00:33:16;;;;;;;0.47;0.47;;;18.60;99.90;;;;;;5090853;28;20066;-61
2023/07/15 00:35:43;;;;;;;0.20;0.20;;;18.40;99.90;;;;;;5090778;28;20056;-63
2023/07/15 00:38:13;;;;;;;0.80;0.70;;;18.30;99.90;;;;;;5090517;28;20047;-62
2023/07/15 00:40:47;;;;;;;0.47;0.47;;;18.60;99.90;;;;;;5090481;28;20052;-62
2023/07/15 00:43:50;;;;;;;2.53;0.98;;;18.10;99.90;;;;;;5090297;28;20685;-62
2023/07/15 00:46:19;;;;;;;0.15;0.15;;;18.20;99.90;;;;;;5090646;28;20052;-62
2023/07/15 00:48:57;;;;;;;0.52;0.52;;;17.90;99.90;;;;;;5090600;28;20073;-61
2023/07/15 00:51:25;;;;;;;0.95;0.68;;;20.70;99.90;;;;;;5089334;28;20087;-63
2023/07/15 00:53:53;;;;;;;0.20;0.20;;;18.30;99.90;;;;;;5089608;28;20392;-61
2023/07/15 00:56:21;;;;;;;1.10;1.00;;;18.20;99.90;;;;;;5090480;28;20124;-64
2023/07/15 00:58:48;;;;;;;0.57;0.57;;;18.60;99.90;;;;;;5090413;28;20079;-62
2023/07/15 01:01:14;;;;;;;0.43;0.43;;;18.40;99.90;;;;;;5090435;28;20048;-65
2023/07/15 01:03:40;;;;;;;0.30;0.30;;;18.20;99.90;;;;;;5090245;28;20158;-61
2023/07/15 01:06:07;;;;;;;1.13;0.68;;;18.30;99.90;;;;;;5090226;28;20181;-62
2023/07/15 01:08:32;;;;;;;0.40;0.40;;;18.30;99.90;;;;;;5090432;28;20083;-62
2023/07/15 01:10:58;;;;;;;0.30;0.30;;;18.40;99.90;;;;;;5090361;28;20076;-61
2023/07/15 01:13:24;;;;;;;0.60;0.60;;;18.40;99.90;;;;;;5090214;28;20052;-62
2023/07/15 01:15:49;;;;;;;0.28;0.28;;;18.50;99.90;;;;;;5090214;28;20052;-62
2023/07/15 01:18:16;;;;;;;0.17;0.17;;;18.60;99.90;;;;;;5090092;28;20488;-65
2023/07/15 01:20:42;;;;;;;2.88;1.98;;;18.50;99.90;;;;;;5090506;28;20052;-61
2023/07/15 01:23:07;;;;;;;0.85;0.68;;;18.40;99.90;;;;;;5094221;28;20506;-62
2023/07/15 01:25:33;;;;;;;0.57;0.57;;;18.40;99.90;;;;;;5094282;28;20048;-62
2023/07/15 01:27:59;;;;;;;0.17;0.17;;;18.50;99.90;;;;;;5094125;28;20502;-62
2023/07/15 01:30:25;;;;;;;1.23;0.63;;;18.90;99.90;;;;;;5094047;28;20173;-62
2023/07/15 01:32:50;;;;;;;0.50;0.50;;;18.50;99.90;;;;;;5093888;28;20109;-63
2023/07/15 01:35:16;;;;;;;0.30;0.30;;;18.40;99.90;;;;;;5093786;28;20083;-64
2023/07/15 01:37:42;;;;;;;0.20;0.20;;;18.40;99.90;;;;;;5093991;28;20051;-62
2023/07/15 01:40:09;;;;;;;0.20;0.20;;;18.50;99.90;;;;;;5094224;28;20050;-63
2023/07/15 01:42:35;;;;;;;0.32;0.32;;;18.70;99.90;;;;;;5094109;28;20059;-61
2023/07/15 01:45:02;;;;;;;0.35;0.32;;;18.80;99.90;;;;;;5094137;28;20056;-63
2023/07/15 01:47:28;;;;;;;0.15;0.15;;;18.60;99.90;;;;;;5093956;28;20067;-65
2023/07/15 01:49:54;;;;;;;1.55;1.15;;;18.80;99.90;;;;;;5093923;28;20040;-62
2023/07/15 01:52:19;;;;;;;0.10;0.10;;;18.70;99.90;;;;;;5094180;28;20059;-62
2023/07/15 01:54:45;;;;;;;0.40;0.40;;;18.70;99.90;;;;;;5094003;28;20051;-62
2023/07/15 01:57:11;;;;;;;2.22;0.63;;;18.70;99.90;;;;;;5093857;28;20554;-61
2023/07/15 01:59:36;;;;;;;1.10;0.57;;;19.00;99.90;;;;;;5092563;28;20060;-61
2023/07/15 02:02:02;;;;;;;0.17;0.17;;;19.00;99.90;;;;;;5092656;28;20090;-61
2023/07/15 02:04:28;;;;;;;0.20;0.20;;;18.50;99.90;;;;;;5092509;28;20051;-66
2023/07/15 02:06:53;;;;;;;0.10;0.10;;;18.80;99.90;;;;;;5093621;28;20074;-62
2023/07/15 02:09:19;;;;;;;0.20;0.20;;;18.80;99.90;;;;;;5094072;28;20044;-62
2023/07/15 02:11:45;;;;;;;0.38;0.30;;;18.80;99.90;;;;;;5093676;28;20479;-62
2023/07/15 02:14:10;;;;;;;0.65;0.40;;;18.90;99.90;;;;;;5093649;28;20059;-62
2023/07/15 02:16:36;;;;;;;0.40;0.40;;;18.90;99.90;;;;;;5093512;28;20083;-62
2023/07/15 02:19:02;;;;;;;0.93;0.60;;;19.00;99.90;;;;;;5093363;28;20043;-63
2023/07/15 02:21:28;;;;;;;0.68;0.32;;;18.70;99.90;;;;;;5093741;28;20050;-66
2023/07/15 02:23:54;;;;;;;0.60;0.40;;;18.70;99.90;;;;;;5093787;28;20048;-62
2023/07/15 02:26:20;;;;;;;1.00;0.30;;;18.40;99.90;;;;;;5093450;28;20135;-62
2023/07/15 02:28:46;;;;;;;0.40;0.35;;;19.00;99.90;;;;;;5093368;28;20043;-62
2023/07/15 02:31:12;;;;;;;0.20;0.20;;;18.90;99.90;;;;;;5093157;28;20079;-62
2023/07/15 02:33:38;;;;;;;0.30;0.30;;;18.60;99.90;;;;;;5092663;28;20090;-62
2023/07/15 02:36:04;;;;;;;0.22;0.22;;;18.70;99.90;;;;;;5092169;28;20048;-63
2023/07/15 02:38:33;;;;;;;0.47;0.47;;;18.90;99.90;;;;;;5093101;28;20063;-63
2023/07/15 02:40:59;;;;;;;0.30;0.30;;;18.60;99.90;;;;;;5093054;28;20097;-63
2023/07/15 02:43:25;;;;;;;0.20;0.20;;;19.00;99.90;;;;;;5093193;28;20056;-63
2023/07/15 02:45:51;;;;;;;0.38;0.38;;;18.90;99.90;;;;;;5092911;28;20121;-63
2023/07/15 02:48:19;;;;;;;0.20;0.20;;;18.70;99.90;;;;;;5092654;28;20058;-62
2023/07/15 02:50:46;;;;;;;0.17;0.17;;;18.90;99.90;;;;;;5093030;28;20139;-62
2023/07/15 02:53:11;;;;;;;0.25;0.25;;;18.80;99.90;;;;;;5091407;28;20592;-62
2023/07/15 02:55:37;;;;;;;0.40;0.40;;;18.90;99.90;;;;;;5074757;28;20048;-61
2023/07/15 02:58:03;;;;;;;0.52;0.45;;;18.70;99.90;;;;;;5092595;28;20044;-62
2023/07/15 03:00:29;;;;;;;0.38;0.38;;;18.60;99.90;;;;;;5092289;28;20063;-63
2023/07/15 03:02:55;;;;;;;0.63;0.63;;;18.80;99.90;;;;;;5092313;28;20051;-62
2023/07/15 03:05:21;;;;;;;0.45;0.32;;;18.90;99.90;;;;;;5092885;28;20120;-64
2023/07/15 03:07:47;;;;;;;0.60;0.55;;;18.80;99.90;;;;;;5092539;28;20040;-63
2023/07/15 03:10:15;;;;;;;0.60;0.60;;;18.90;99.90;;;;;;5092482;28;20072;-63
2023/07/15 03:12:42;;;;;;;0.20;0.20;;;18.90;99.90;;;;;;5092388;28;20055;-62
2023/07/15 03:15:09;;;;;;;0.20;0.20;;;18.60;99.90;;;;;;5092197;28;20040;-63
2023/07/15 03:17:35;;;;;;;0.38;0.38;;;19.10;99.90;;;;;;5092432;28;20050;-63
2023/07/15 03:20:19;;;;;;;0.30;0.30;;;18.80;99.90;;;;;;5092359;28;20206;-62
2023/07/15 03:22:51;;;;;;;0.20;0.20;;;18.50;99.90;;;;;;5092306;28;20105;-63
2023/07/15 03:25:19;;;;;;;0.30;0.30;;;18.70;99.90;;;;;;5092154;28;20125;-63
2023/07/15 03:27:45;;;;;;;0.30;0.30;;;18.50;99.90;;;;;;5090716;28;20067;-62
2023/07/15 03:30:12;;;;;;;0.35;0.35;;;18.60;99.90;;;;;;5092242;28;20044;-62
2023/07/15 03:32:39;;;;;;;0.32;0.32;;;18.50;99.90;;;;;;5092104;28;20048;-63
2023/07/15 03:35:08;;;;;;;0.35;0.28;;;18.60;99.90;;;;;;5092058;28;20040;-63
2023/07/15 03:37:35;;;;;;;0.20;0.20;;;18.60;99.90;;;;;;5091949;28;20047;-63
2023/07/15 03:40:00;;;;;;;0.28;0.28;;;18.20;99.90;;;;;;5091904;28;20063;-63
2023/07/15 03:42:27;;;;;;;0.15;0.15;;;18.40;99.90;;;;;;5090292;28;20507;-62
2023/07/15 03:44:53;;;;;;;0.30;0.30;;;18.20;99.90;;;;;;5091269;28;20082;-64
2023/07/15 03:47:20;;;;;;;0.38;0.38;;;18.30;99.90;;;;;;5091916;28;20047;-62
2023/07/15 03:49:46;;;;;;;0.20;0.20;;;18.10;99.90;;;;;;5091978;28;20040;-62
2023/07/15 03:52:12;;;;;;;0.50;0.50;;;18.50;99.90;;;;;;5091978;28;20458;-62
2023/07/15 03:54:37;;;;;;;0.60;0.52;;;18.00;99.90;;;;;;5091652;28;20048;-62
2023/07/15 03:57:03;;;;;;;0.22;0.20;;;18.40;99.90;;;;;;5091498;28;20503;-62
2023/07/15 03:59:29;;;;;;;0.50;0.45;;;18.00;99.90;;;;;;5091410;28;20044;-62
2023/07/15 04:01:55;;;;;;;0.68;0.68;;;18.20;99.90;;;;;;5091795;28;20051;-62
2023/07/15 04:04:23;;;;;;;0.43;0.43;;;18.20;99.90;;;;;;5091542;28;20044;-62
2023/07/15 04:06:49;;;;;;;0.28;0.28;;;17.90;99.90;;;;;;5091473;28;20116;-63
2023/07/15 04:09:16;;;;;;;0.38;0.38;;;17.80;99.90;;;;;;5091475;28;20826;-63
2023/07/15 04:11:43;;;;;;;0.22;0.22;;;17.70;99.90;;;;;;5091315;28;20048;-63
2023/07/15 04:14:09;;;;;;;0.30;0.30;;;17.90;99.90;;;;;;5091499;28;20051;-63
2023/07/15 04:16:35;;;;;;;0.25;0.25;;;17.90;99.90;;;;;;5091564;28;20097;-64
2023/07/15 04:19:01;;;;;;;0.28;0.28;;;18.10;99.90;;;;;;5091732;28;20109;-63
2023/07/15 04:21:26;;;;;;;0.30;0.30;;;17.80;99.90;;;;;;5090244;28;20048;-64
2023/07/15 04:23:52;;;;;;;0.40;0.40;;;17.60;99.90;;;;;;5091256;28;20048;-63
2023/07/15 04:26:22;;;;;;;0.15;0.15;;;17.80;99.90;;;;;;5091080;28;20402;-63
2023/07/15 04:28:49;;;;;;;0.30;0.30;;;18.00;99.90;;;;;;5091484;28;20051;-63
2023/07/15 04:31:15;;;;;;;0.28;0.28;;;17.60;99.90;;;;;;5073251;28;20052;-63
2023/07/15 04:33:43;;;;;;;0.75;0.73;;;17.90;99.90;;;;;;5091165;28;20051;-63
2023/07/15 04:36:09;;;;;;;0.65;0.65;;;17.90;99.90;;;;;;5091034;28;20044;-62
2023/07/15 04:38:34;;;;;;;0.57;0.52;;;18.20;99.90;;;;;;5090849;28;20051;-62
2023/07/15 04:41:00;;;;;;;0.43;0.43;;;17.70;99.90;;;;;;5090842;28;20087;-63
2023/07/15 04:43:26;;;;;;;0.25;0.25;;;18.00;99.90;;;;;;5090736;28;20051;-62
2023/07/15 04:45:52;;;;;;;1.20;0.75;;;18.10;99.90;;;;;;5089657;28;20052;-62
2023/07/15 04:48:18;;;;;;;1.35;0.82;;;17.90;99.90;;;;;;5090949;28;20161;-63
2023/07/15 04:50:45;;;;;;;1.17;0.88;;;18.20;99.90;;;;;;5090899;28;20048;-63
2023/07/15 04:53:11;;;;;;;0.40;0.40;;;18.30;99.90;;;;;;5090785;28;20047;-62
2023/07/15 04:55:37;;;;;;;0.25;0.25;;;18.50;99.90;;;;;;5093081;28;20048;-62
2023/07/15 04:58:03;;;;;;;0.22;0.22;;;18.50;99.90;;;;;;5095192;28;20055;-62
2023/07/15 05:00:29;;;;;;;0.55;0.55;;;18.30;99.90;;;;;;5094970;28;20119;-64
2023/07/15 05:02:55;;;;;;;2.00;0.47;;;18.50;99.90;;;;;;5095006;28;20044;-62
2023/07/15 05:05:21;;;;;;;0.30;0.30;;;18.60;99.90;;;;;;5094809;28;20084;-63
2023/07/15 05:07:49;;;;;;;0.50;0.50;;;18.60;99.90;;;;;;5094740;28;20141;-62
2023/07/15 05:10:15;;;;;;;0.20;0.20;;;19.00;99.90;;;;;;5094650;28;20079;-62
2023/07/15 05:12:41;;;;;;;0.40;0.38;;;18.70;99.90;;;;;;5094926;28;20051;-62
2023/07/15 05:15:08;;;;;;;0.40;0.40;;;18.70;99.90;;;;;;5094838;28;20044;-62
2023/07/15 05:17:34;;;;;;;1.00;0.77;;;19.10;99.90;;;;;;5094669;28;20492;-63
2023/07/15 05:19:59;;;;;;;0.30;0.30;;;18.70;99.90;;;;;;5094640;28;20100;-63
2023/07/15 05:22:26;;;;;;;0.70;0.70;;;18.80;99.90;;;;;;5093178;28;20491;-62
2023/07/15 05:24:52;;;;;;;0.40;0.40;;;18.70;99.90;;;;;;5093372;28;20044;-63
2023/07/15 05:27:17;;;;;;;0.30;0.30;;;19.00;99.90;;;;;;5094601;28;20054;-63
2023/07/15 05:29:44;;;;;;;0.50;0.40;;;19.00;99.90;;;;;;5094350;28;20059;-62
2023/07/15 05:32:10;;;;;;;0.90;0.70;;;18.90;99.90;;;;;;5094487;28;20051;-63
2023/07/15 05:34:36;;;;;;;0.30;0.30;;;19.30;99.90;;;;;;5094390;28;20044;-63
2023/07/15 05:37:02;;;;;;;0.77;0.77;;;19.30;99.90;;;;;;5093203;28;20047;-62
2023/07/15 05:39:28;;;;;;;0.32;0.32;;;19.50;99.90;;;;;;5094615;28;20036;-62
2023/07/15 05:41:54;;;;;;;0.17;0.17;;;19.40;99.90;;;;;;5094277;28;20036;-62
2023/07/15 05:44:19;;;;;;;0.82;0.82;;;19.70;99.90;;;;;;5094317;28;20064;-64
2023/07/15 05:46:45;;;;;;;0.32;0.30;;;19.50;99.90;;;;;;5094249;28;20093;-63
2023/07/15 05:49:11;;;;;;;0.25;0.25;;;19.50;99.90;;;;;;5094086;28;20098;-64
2023/07/15 05:51:36;;;;;;;0.30;0.30;;;19.70;99.90;;;;;;5092621;28;20044;-64
2023/07/15 05:54:02;;;;;;;1.60;0.93;;;19.50;99.90;;;;;;5094329;28;20044;-63
2023/07/15 05:56:28;;;;;;;0.30;0.30;;;19.90;99.90;;;;;;5094069;28;20040;-62
2023/07/15 05:58:54;;;;;;;0.20;0.20;;;19.70;99.90;;;;;;5092761;28;20156;-62
2023/07/15 06:01:20;;;;;;;0.43;0.43;;;20.20;99.90;;;;;;5093864;28;20079;-62
2023/07/15 06:03:46;;;;;;;0.40;0.40;;;20.20;99.90;;;;;;5093822;28;20052;-64
2023/07/15 06:06:13;;;;;;;0.45;0.30;;;20.30;99.90;;;;;;5093313;28;20105;-63
2023/07/15 06:08:39;;;;;;;0.85;0.57;;;20.40;99.90;;;;;;5093571;28;20048;-63
2023/07/15 06:11:04;;;;;;;1.10;0.75;;;20.80;99.90;;;;;;5093991;28;20044;-62
2023/07/15 06:13:30;;;;;;;0.50;0.35;;;20.80;99.90;;;;;;5093972;28;20067;-63
2023/07/15 06:15:56;;;;;;;0.28;0.28;;;20.70;99.90;;;;;;5093761;28;20094;-62
2023/07/15 06:18:22;;;;;;;0.50;0.50;;;20.80;99.90;;;;;;5088581;28;20427;-63
2023/07/15 06:20:49;;;;;;;1.75;1.50;;;21.00;99.90;;;;;;5092436;28;20051;-63
2023/07/15 06:23:15;;;;;;;1.38;0.57;;;20.50;99.90;;;;;;5092621;28;20048;-61
2023/07/15 06:25:40;;;;;;;0.30;0.30;;;21.10;99.90;;;;;;5092604;28;20044;-62
2023/07/15 06:28:06;;;;;;;0.30;0.30;;;21.20;99.90;;;;;;5092730;28;20058;-64
2023/07/15 06:30:32;;;;;;;0.60;0.60;;;20.80;99.90;;;;;;5092525;28;20540;-65
2023/07/15 06:32:58;;;;;;;0.43;0.43;;;21.00;99.90;;;;;;5091659;28;20082;-63
2023/07/15 06:35:23;;;;;;;0.57;0.50;;;20.70;99.90;;;;;;5092485;28;20048;-63
2023/07/15 06:37:50;;;;;;;0.30;0.30;;;21.00;99.90;;;;;;5090814;28;20484;-62
2023/07/15 06:40:17;;;;;;;0.30;0.30;;;21.20;99.90;;;;;;5091358;28;20119;-63
2023/07/15 06:42:44;;;;;;;0.70;0.70;;;21.20;99.90;;;;;;5091413;28;20059;-63
2023/07/15 06:45:11;;;;;;;1.35;0.75;;;21.60;99.90;;;;;;5092405;28;20056;-64
2023/07/15 06:47:37;;;;;;;0.25;0.22;;;21.20;99.90;;;;;;5091449;28;20044;-63
2023/07/15 06:50:03;;;;;;;0.68;0.68;;;21.40;99.90;;;;;;5092229;28;20032;-63
2023/07/15 06:52:29;;;;;;;0.52;0.52;;;21.60;99.90;;;;;;5092425;28;20047;-63
2023/07/15 06:54:54;;;;;;;0.65;0.52;;;21.70;99.90;;;;;;5091790;28;20127;-63
2023/07/15 06:57:20;;;;;;;0.10;0.10;;;21.80;99.90;;;;;;5092264;28;20054;-63
2023/07/15 06:59:47;;;;;;;5.03;0.50;;;22.00;99.90;;;;;;5092130;28;20036;-63
2023/07/15 07:02:13;;;;;;;0.30;0.30;;;22.30;99.90;;;;;;5091138;28;20043;-61
2023/07/15 07:04:39;;;;;;;0.17;0.17;;;22.30;99.90;;;;;;5091711;28;20083;-64
2023/07/15 07:07:05;;;;;;;0.35;0.35;;;22.30;99.90;;;;;;5092148;28;20086;-63
2023/07/15 07:09:31;;;;;;;0.43;0.43;;;22.30;99.90;;;;;;5090429;28;20048;-62
2023/07/15 07:11:58;;;;;;;0.70;0.32;;;22.20;99.90;;;;;;5091811;28;20138;-64
2023/07/15 07:14:23;;;;;;;0.10;0.10;;;22.50;99.90;;;;;;5091811;28;20044;-63
2023/07/15 07:16:49;;;;;;;0.00;0.00;;;22.60;99.90;;;;;;5090910;28;20503;-63
2023/07/15 07:19:15;;;;;;;0.98;0.80;;;22.70;99.90;;;;;;5090410;28;20086;-63
2023/07/15 07:21:42;;;;;;;2.50;0.65;;;22.50;99.90;;;;;;5091519;28;20052;-65
2023/07/15 07:24:10;;;;;;;1.00;0.30;;;21.90;99.90;;;;;;5089768;28;20062;-64
2023/07/15 07:26:36;;;;;;;0.28;0.15;;;22.70;99.90;;;;;;5092205;28;20044;-65
2023/07/15 07:29:01;;;;;;;0.57;0.40;;;22.60;99.90;;;;;;5092071;28;20050;-63
2023/07/15 07:31:27;;;;;;;0.20;0.20;;;22.30;99.90;;;;;;5092228;28;20047;-64
2023/07/15 07:33:53;;;;;;;0.32;0.32;;;22.60;99.90;;;;;;5092066;28;20047;-63
2023/07/15 07:36:19;;;;;;;0.10;0.10;;;23.10;99.90;;;;;;5092196;28;20168;-63
2023/07/15 07:38:45;;;;;;;1.17;0.55;;;22.60;99.90;;;;;;5092043;28;20097;-63
2023/07/15 07:41:12;;;;;;;0.25;0.25;;;22.80;99.90;;;;;;5092109;28;20052;-62
2023/07/15 07:43:39;;;;;;;0.20;0.20;;;22.60;99.90;;;;;;5091708;28;20060;-64
2023/07/15 07:46:08;;;;;;;0.10;0.10;;;22.60;99.90;;;;;;5091838;28;20048;-64
2023/07/15 07:48:34;;;;;;;10.10;0.57;;;22.50;99.90;;;;;;5091646;28;20453;-63
2023/07/15 07:51:01;;;;;;;0.20;0.20;;;23.00;99.90;;;;;;5091901;28;20040;-63
2023/07/15 07:53:27;;;;;;;0.52;0.52;;;23.50;99.90;;;;;;5091822;28;20051;-64
2023/07/15 07:55:53;;;;;;;0.20;0.20;;;23.60;99.90;;;;;;5091755;28;20079;-64
2023/07/15 07:58:19;;;;;;;0.05;0.05;;;23.70;99.90;;;;;;5091611;28;20094;-65
2023/07/15 08:00:45;;;;;;;1.83;0.70;;;23.70;99.90;;;;;;5091541;28;20044;-63
2023/07/15 08:03:11;;;;;;;0.28;0.28;;;23.70;99.90;;;;;;5091555;28;20048;-64
2023/07/15 08:05:44;;;;;;;0.40;0.25;;;23.70;99.90;;;;;;5091980;28;20048;-63
2023/07/15 08:08:11;;;;;;;0.28;0.28;;;23.80;99.90;;;;;;5091608;28;20083;-62
2023/07/15 08:10:37;;;;;;;0.00;0.00;;;23.80;99.90;;;;;;5090365;28;20063;-63
2023/07/15 08:13:03;;;;;;;0.20;0.20;;;23.40;99.90;;;;;;5091391;28;20051;-64
2023/07/15 08:15:29;;;;;;;0.63;0.45;;;23.50;99.90;;;;;;5088296;28;20190;-63
2023/07/15 08:17:55;;;;;;;0.30;0.30;;;23.60;99.90;;;;;;5094004;28;20135;-66
2023/07/15 08:20:21;;;;;;;0.30;0.30;;;23.20;99.90;;;;;;5090545;28;20460;-66
2023/07/15 08:22:46;;;;;;;0.38;0.22;;;23.20;99.90;;;;;;5090269;28;20044;-64
2023/07/15 08:25:12;;;;;;;0.32;0.32;;;23.50;99.90;;;;;;5089201;28;20534;-67
2023/07/15 08:27:38;;;;;;;0.20;0.20;;;23.60;99.90;;;;;;5090063;28;20048;-66
2023/07/15 08:30:05;;;;;;;0.10;0.10;;;23.90;99.90;;;;;;5089199;28;20407;-68
2023/07/15 08:32:30;;;;;;;0.20;0.20;;;23.40;99.90;;;;;;5090481;28;20048;-64
2023/07/15 08:35:01;;;;;;;0.08;0.08;;;23.60;99.90;;;;;;5089837;28;20056;-66
2023/07/15 08:37:27;;;;;;;0.20;0.20;;;23.50;99.90;;;;;;5090305;28;20417;-66
2023/07/15 08:39:53;;;;;;;0.10;0.10;;;23.60;99.90;;;;;;5089599;28;20040;-64
2023/07/15 08:42:20;;;;;;;0.52;0.52;;;23.40;99.90;;;;;;5089963;28;20109;-68
2023/07/15 08:44:55;;;;;;;0.17;0.17;;;23.80;99.90;;;;;;5089704;28;20047;-64
2023/07/15 08:47:24;;;;;;;0.10;0.10;;;23.80;99.90;;;;;;5088086;28;20058;-66
2023/07/15 08:49:53;;;;;;;1.75;0.55;;;23.70;99.90;;;;;;5090242;28;20376;-64
2023/07/15 08:52:21;;;;;;;0.28;0.28;;;23.70;99.90;;;;;;5090021;28;20533;-66
2023/07/15 08:54:51;;;;;;;0.20;0.20;;;23.40;99.90;;;;;;5088499;28;20055;-64
2023/07/15 08:57:18;;;;;;;0.30;0.30;;;23.50;99.90;;;;;;5089521;28;20522;-63
2023/07/15 08:59:52;;;;;;;0.80;0.40;;;23.50;99.90;;;;;;5086945;28;20047;-63
2023/07/15 09:02:19;;;;;;;0.20;0.20;;;23.80;99.90;;;;;;5089527;28;20529;-64
2023/07/15 09:04:44;;;;;;;0.63;0.63;;;24.10;99.90;;;;;;5089332;28;20044;-63
2023/07/15 09:07:10;;;;;;;0.03;0.03;;;24.40;99.90;;;;;;5088508;28;20055;-62
2023/07/15 09:09:38;;;;;;;0.30;0.20;;;24.50;99.90;;;;;;5089504;28;20074;-62
2023/07/15 09:12:11;;;;;;;0.10;0.10;;;24.80;99.90;;;;;;5089335;28;20126;-66
2023/07/15 09:14:44;;;;;;;0.10;0.10;;;24.60;99.90;;;;;;5089063;28;20044;-63
2023/07/15 09:17:20;;;;;;;0.25;0.25;;;24.40;99.90;;;;;;5087828;28;20082;-62
2023/07/15 09:19:46;;;;;;;0.13;0.13;;;24.40;99.90;;;;;;5086142;28;20047;-62
2023/07/15 09:22:12;;;;;;;0.10;0.10;;;24.40;99.90;;;;;;5083631;28;20072;-68
2023/07/15 09:24:39;;;;;;;0.38;0.15;;;24.70;99.90;;;;;;5089576;28;20048;-62
2023/07/15 09:27:06;;;;;;;0.20;0.20;;;24.50;99.90;;;;;;5087877;28;20058;-64
2023/07/15 09:29:32;;;;;;;0.25;0.25;;;24.10;99.90;;;;;;5084460;28;20032;-64
2023/07/15 09:31:58;;;;;;;0.10;0.10;;;24.00;99.90;;;;;;5082434;28;20443;-64
2023/07/15 09:34:24;;;;;;;5.47;0.85;;;24.00;99.90;;;;;;5086983;28;20113;-65
2023/07/15 09:36:50;;;;;;;0.10;0.10;;;23.70;99.90;;;;;;5087701;28;20105;-65
2023/07/15 09:39:19;;;;;;;0.00;0.00;;;23.60;99.90;;;;;;5087699;28;20040;-63
2023/07/15 09:42:02;;;;;;;1.08;0.28;;;23.50;99.90;;;;;;5088638;28;20044;-65
2023/07/15 09:44:39;;;;;;;0.10;0.10;;;23.80;99.90;;;;;;5091617;28;20058;-62
2023/07/15 09:47:06;;;;;;;0.52;0.22;;;24.10;99.90;;;;;;5091904;28;20052;-65
2023/07/15 09:49:32;;;;;;;0.00;0.00;;;24.00;99.90;;;;;;5091571;28;20040;-64
2023/07/15 09:51:59;;;;;;;0.00;0.00;;;23.90;99.90;;;;;;5092012;28;20044;-62
2023/07/15 09:54:31;;;;;;;0.00;0.00;;;24.40;99.90;;;;;;5093373;28;20040;-62
2023/07/15 09:57:02;;;;;;;0.10;0.10;;;24.60;99.90;;;;;;5092928;28;20040;-62
2023/07/15 09:59:33;;;;;;;0.10;0.10;;;25.00;99.90;;;;;;5093714;28;20079;-62
2023/07/15 10:02:14;;;;;;;0.10;0.10;;;25.20;99.90;;;;;;5093406;28;20070;-62
2023/07/15 10:04:45;;;;;;;0.20;0.20;;;24.90;99.90;;;;;;5093549;28;20051;-64
2023/07/15 10:07:12;;;;;;;0.55;0.55;;;25.10;99.90;;;;;;5093425;28;20091;-63
2023/07/15 10:09:38;;;;;;;0.00;0.00;;;25.00;99.90;;;;;;5092075;28;20086;-63
2023/07/15 10:12:05;;;;;;;0.00;0.00;;;25.70;99.90;;;;;;5089366;28;20043;-70
2023/07/15 10:14:31;;;;;;;0.10;0.10;;;25.40;99.90;;;;;;5087110;28;20039;-64
2023/07/15 10:17:15;;;;;;;0.20;0.20;;;25.20;99.90;;;;;;5091096;28;20047;-65
2023/07/15 10:19:48;;;;;;;0.10;0.10;;;25.10;99.90;;;;;;5091961;28;20044;-66
2023/07/15 10:22:18;;;;;;;0.10;0.10;;;25.50;99.90;;;;;;5092648;28;20057;-62
2023/07/15 10:24:53;;;;;;;0.10;0.10;;;25.60;99.90;;;;;;5089087;28;20553;-63
2023/07/15 10:27:18;;;;;;;0.70;0.30;;;25.50;99.90;;;;;;5092379;28;20044;-63
2023/07/15 10:29:44;;;;;;;0.20;0.20;;;25.50;99.90;;;;;;5092978;28;20044;-64
2023/07/15 10:32:15;;;;;;;0.00;0.00;;;25.30;99.90;;;;;;5092886;28;20040;-64
2023/07/15 10:34:48;;;;;;;0.55;0.45;;;25.30;99.90;;;;;;5092860;28;20094;-64
2023/07/15 10:37:15;;;;;;;0.30;0.17;;;25.20;99.90;;;;;;5092605;28;20062;-63
2023/07/15 10:39:44;;;;;;;0.10;0.10;;;25.10;99.90;;;;;;5092306;28;20102;-63
2023/07/15 10:42:15;;;;;;;0.22;0.20;;;24.90;99.90;;;;;;5092612;28;20097;-63
2023/07/15 10:44:45;;;;;;;0.17;0.17;;;25.30;99.90;;;;;;5092462;28;20052;-63
2023/07/15 10:47:14;;;;;;;0.05;0.05;;;25.60;99.90;;;;;;5092300;28;20090;-62
2023/07/15 10:49:40;;;;;;;0.03;0.03;;;25.60;99.90;;;;;;5092491;28;20538;-64
2023/07/15 10:52:07;;;;;;;0.55;0.20;;;25.80;99.90;;;;;;5090959;28;20052;-63
2023/07/15 10:54:37;;;;;;;0.70;0.32;;;25.70;99.90;;;;;;5092489;28;20048;-62
2023/07/15 10:57:14;;;;;;;0.77;0.77;;;25.90;99.90;;;;;;5092751;28;20102;-64
2023/07/15 10:59:42;;;;;;;0.20;0.20;;;26.10;99.90;;;;;;5091337;28;20044;-64
2023/07/15 11:02:09;;;;;;;0.20;0.20;;;26.30;99.90;;;;;;5091141;28;20523;-63
2023/07/15 11:04:36;;;;;;;0.22;0.22;;;26.30;99.90;;;;;;5092178;28;20040;-63
2023/07/15 11:07:03;;;;;;;0.20;0.20;;;26.30;99.90;;;;;;5092523;28;20048;-64
2023/07/15 11:09:30;;;;;;;1.42;0.15;;;26.20;99.90;;;;;;5092196;28;20119;-64
2023/07/15 11:11:55;;;;;;;0.30;0.28;;;26.30;99.90;;;;;;5092186;28;20078;-66
2023/07/15 11:14:29;;;;;;;0.10;0.10;;;26.40;99.90;;;;;;5092204;28;20052;-64
2023/07/15 11:17:03;;;;;;;0.10;0.10;;;26.20;99.90;;;;;;5091984;28;20052;-64
2023/07/15 11:19:29;;;;;;;0.40;0.15;;;26.30;99.90;;;;;;5091048;28;20086;-63
2023/07/15 11:21:56;;;;;;;0.32;0.32;;;26.80;99.90;;;;;;5092042;28;20333;-63
2023/07/15 11:24:23;;;;;;;0.20;0.20;;;26.80;99.90;;;;;;5091987;28;20059;-63
2023/07/15 11:26:50;;;;;;;0.10;0.10;;;27.30;99.90;;;;;;5091979;28;20043;-64
2023/07/15 11:29:23;;;;;;;0.00;0.00;;;27.20;99.90;;;;;;5091642;28;20169;-63
2023/07/15 11:31:54;;;;;;;0.13;0.13;;;26.80;99.90;;;;;;5091551;28;20048;-64
2023/07/15 11:34:22;;;;;;;0.43;0.43;;;26.50;99.90;;;;;;5091885;28;20393;-64
2023/07/15 11:36:49;;;;;;;0.10;0.10;;;26.00;99.90;;;;;;5091562;28;20056;-64
2023/07/15 11:39:15;;;;;;;0.35;0.35;;;26.00;99.90;;;;;;5091685;28;20087;-63
2023/07/15 11:41:41;;;;;;;0.32;0.20;;;25.90;99.90;;;;;;5091516;28;20055;-65
2023/07/15 11:44:09;;;;;;;0.45;0.45;;;26.30;99.90;;;;;;5091203;28;20696;-64
2023/07/15 11:46:35;;;;;;;0.20;0.20;;;26.30;99.90;;;;;;5091660;28;20044;-65
2023/07/15 11:49:02;;;;;;;0.20;0.20;;;26.00;99.90;;;;;;5091424;28;20040;-64
2023/07/15 11:51:29;;;;;;;0.00;0.00;;;26.00;99.90;;;;;;5091743;28;20083;-63
2023/07/15 11:53:55;;;;;;;0.10;0.10;;;25.90;99.90;;;;;;5091522;28;20047;-63
2023/07/15 11:56:41;;;;;;;0.35;0.35;;;26.50;99.90;;;;;;5091246;28;20123;-65
2023/07/15 11:59:08;;;;;;;0.22;0.20;;;26.40;99.90;;;;;;5091418;28;20051;-63
2023/07/15 12:01:39;;;;;;;0.10;0.10;;;26.70;99.90;;;;;;5091784;28;20051;-63
2023/07/15 12:04:15;;;;;;;0.32;0.15;;;26.40;99.90;;;;;;5091442;28;20048;-63
2023/07/15 12:06:52;;;;;;;;;;;26.30;99.90;;;;;;5091746;28;20132;-64
2023/07/15 12:09:19;;;;;;;0.32;0.32;;;26.50;99.90;;;;;;5091239;28;19931;-63
2023/07/15 12:11:46;;;;;;;0.10;0.10;;;26.50;99.90;;;;;;5091622;28;20044;-63
2023/07/15 12:14:13;;;;;;;0.38;0.38;;;27.00;99.90;;;;;;5091510;28;20062;-65
2023/07/15 12:16:39;;;;;;;0.15;0.15;;;26.90;99.90;;;;;;5090025;28;20521;-64
2023/07/15 12:19:11;;;;;;;0.10;0.10;;;26.50;99.90;;;;;;5090013;28;20044;-64
2023/07/15 12:21:37;;;;;;;0.20;0.20;;;26.40;99.90;;;;;;5091276;28;20087;-64
2023/07/15 12:24:02;;;;;;;2.40;1.02;;;26.60;99.90;;;;;;5091497;28;20055;-63
2023/07/15 12:26:29;;;;;;;0.10;0.10;;;26.20;99.90;;;;;;5091207;28;20040;-63
2023/07/15 12:28:54;;;;;;;5.70;0.40;;;26.40;99.90;;;;;;5091211;28;20403;-64
2023/07/15 12:31:21;;;;;;;0.10;0.10;;;26.20;99.90;;;;;;5091095;28;20051;-66
2023/07/15 12:33:47;;;;;;;1.65;1.05;;;26.30;99.90;;;;;;5090994;28;20047;-64
2023/07/15 12:36:14;;;;;;;0.25;0.25;;;26.20;99.90;;;;;;5089662;28;20091;-66
2023/07/15 12:38:40;;;;;;;0.00;0.00;;;26.10;99.90;;;;;;5091244;28;20429;-63
2023/07/15 12:41:07;;;;;;;0.17;0.17;;;26.20;99.90;;;;;;5091231;28;20048;-65
2023/07/15 12:43:33;;;;;;;0.50;0.50;;;26.20;99.90;;;;;;5091209;28;20059;-64
2023/07/15 12:46:01;;;;;;;0.20;0.20;;;26.00;99.90;;;;;;5091032;28;20060;-64
2023/07/15 12:48:26;;;;;;;0.03;0.03;;;25.90;99.90;;;;;;5091119;28;20573;-65